Time;durP1;ratioP1;P1;durP2;ratioP2;P2;SDS_P1;SDS_P2;PMS_P1;PMS_P2;Temp;Humidity;BMP_temperature;BMP_pressure;BME280_temperature;BME280_humidity;BME280_pressure;Samples;Min_cycle;Max_cycle;Signal;HPM_P1;HPM_P2
2023/03/20 00:00:42;;;;;;;30.52;18.58;;;;;;;;;;5096799;28;20043;-66
2023/03/20 00:03:10;;;;;;;32.38;18.70;;;;;;;;;;5079220;28;20016;-65
2023/03/20 00:05:35;;;;;;;27.63;17.35;;;;;;;;;;5097100;28;20028;-65
2023/03/20 00:08:00;;;;;;;34.30;20.63;;;;;;;;;;5096261;28;20387;-66
2023/03/20 00:10:31;;;;;;;37.28;21.20;;;;;;;;;;5066648;23;20061;-67
2023/03/20 00:12:56;;;;;;;42.13;21.27;;;;;;;;;;5056039;28;20558;-65
2023/03/20 00:15:25;;;;;;;36.28;19.00;;;;;;;;;;5060075;28;20138;-65
2023/03/20 00:17:51;;;;;;;34.97;20.10;;;;;;;;;;5076345;28;20044;-66
2023/03/20 00:20:16;;;;;;;36.72;20.88;;;;;;;;;;5076495;28;20033;-65
2023/03/20 00:22:42;;;;;;;35.55;20.35;;;;;;;;;;5076043;28;20047;-63
2023/03/20 00:25:18;;;;;;;38.42;21.33;;;;;;;;;;5075736;28;20028;-64
2023/03/20 00:27:44;;;;;;;41.88;21.50;;;;;;;;;;5075938;28;20033;-63
2023/03/20 00:30:15;;;;;;;36.47;21.30;;;;;;;;;;5058276;28;20027;-72
2023/03/20 00:32:43;;;;;;;38.13;21.60;;;;;;;;;;5057621;28;20036;-66
2023/03/20 00:35:20;;;;;;;39.42;23.20;;;;;;;;;;5075736;28;20391;-67
2023/03/20 00:37:46;;;;;;;43.15;24.10;;;;;;;;;;5075862;28;20036;-64
2023/03/20 00:40:11;;;;;;;44.03;24.45;;;;;;;;;;5057491;28;20078;-65
2023/03/20 00:42:40;;;;;;;47.25;24.55;;;;;;;;;;5057465;28;20062;-64
2023/03/20 00:45:11;;;;;;;39.83;22.23;;;;;;;;;;5076154;28;20028;-64
2023/03/20 00:47:39;;;;;;;40.35;22.65;;;;;;;;;;5040853;28;20029;-64
2023/03/20 00:50:12;;;;;;;49.15;24.33;;;;;;;;;;5057680;28;20037;-65
2023/03/20 00:52:38;;;;;;;53.50;25.63;;;;;;;;;;5046699;28;20040;-67
2023/03/20 00:55:03;;;;;;;47.95;24.38;;;;;;;;;;5037214;28;20024;-67
2023/03/20 00:57:33;;;;;;;46.15;24.13;;;;;;;;;;5070467;28;20035;-64
2023/03/20 01:00:01;;;;;;;40.35;21.48;;;;;;;;;;5070784;28;20108;-64
2023/03/20 01:02:27;;;;;;;35.33;20.63;;;;;;;;;;5055136;28;20384;-64
2023/03/20 01:04:54;;;;;;;38.05;21.40;;;;;;;;;;5037454;28;20448;-64
2023/03/20 01:07:19;;;;;;;33.47;19.73;;;;;;;;;;5070476;28;20021;-63
2023/03/20 01:09:46;;;;;;;35.08;20.17;;;;;;;;;;5036909;28;20037;-63
2023/03/20 01:12:12;;;;;;;35.47;21.40;;;;;;;;;;5054676;28;20072;-64
2023/03/20 01:14:39;;;;;;;37.10;21.27;;;;;;;;;;5055308;28;20037;-65
2023/03/20 01:17:09;;;;;;;38.72;21.75;;;;;;;;;;5070846;28;20377;-63
2023/03/20 01:19:35;;;;;;;39.72;21.67;;;;;;;;;;5037528;28;20055;-64
2023/03/20 01:22:01;;;;;;;37.65;21.30;;;;;;;;;;5054631;28;20473;-63
2023/03/20 01:24:27;;;;;;;35.28;20.45;;;;;;;;;;5069913;28;20116;-63
2023/03/20 01:26:53;;;;;;;40.60;21.08;;;;;;;;;;5054548;28;20029;-63
2023/03/20 01:29:23;;;;;;;38.50;20.67;;;;;;;;;;5054782;28;20112;-64
2023/03/20 01:31:50;;;;;;;41.63;20.58;;;;;;;;;;5044814;28;20032;-64
2023/03/20 01:34:17;;;;;;;34.92;19.25;;;;;;;;;;5056398;28;20035;-63
2023/03/20 01:37:03;;;;;;;33.20;19.15;;;;;;;;;;5056463;28;20017;-63
2023/03/20 01:39:33;;;;;;;33.25;19.17;;;;;;;;;;5056219;28;20487;-62
2023/03/20 01:41:59;;;;;;;37.45;19.75;;;;;;;;;;5056418;28;20028;-64
2023/03/20 01:44:30;;;;;;;36.95;19.45;;;;;;;;;;5056636;28;20429;-64
2023/03/20 01:47:00;;;;;;;36.17;19.75;;;;;;;;;;5056196;28;20025;-64
2023/03/20 01:49:27;;;;;;;34.55;19.00;;;;;;;;;;5054927;28;20064;-63
2023/03/20 01:51:55;;;;;;;35.85;20.30;;;;;;;;;;5036119;28;20388;-65
2023/03/20 01:54:20;;;;;;;35.70;19.17;;;;;;;;;;5069847;28;20112;-65
2023/03/20 01:57:02;;;;;;;31.38;18.38;;;;;;;;;;5036554;28;20537;-64
2023/03/20 01:59:33;;;;;;;31.85;17.98;;;;;;;;;;5019709;28;20028;-65
2023/03/20 02:01:59;;;;;;;33.13;19.45;;;;;;;;;;5063396;28;20067;-65
2023/03/20 02:04:27;;;;;;;35.08;18.58;;;;;;;;;;5056368;28;20024;-65
2023/03/20 02:06:59;;;;;;;32.63;18.77;;;;;;;;;;5038285;28;20036;-64
2023/03/20 02:09:34;;;;;;;32.78;18.27;;;;;;;;;;5054064;28;20391;-66
2023/03/20 02:12:01;;;;;;;32.70;17.73;;;;;;;;;;5066282;28;20066;-63
2023/03/20 02:14:28;;;;;;;32.58;18.77;;;;;;;;;;5016362;28;20029;-66
2023/03/20 02:17:04;;;;;;;32.22;18.42;;;;;;;;;;5033093;28;20064;-66
2023/03/20 02:19:39;;;;;;;29.73;17.45;;;;;;;;;;5053066;28;20429;-66
2023/03/20 02:22:25;;;;;;;38.35;19.95;;;;;;;;;;5069611;28;20476;-67
2023/03/20 02:27:37;;;;;;;31.07;17.17;;;;;;;;;;5048147;23;20054;-66
2023/03/20 02:30:23;;;;;;;34.80;18.65;;;;;;;;;;4996031;28;20026;-66
2023/03/20 02:33:04;;;;;;;29.25;17.42;;;;;;;;;;4997091;28;20030;-66
2023/03/20 02:35:48;;;;;;;37.83;20.13;;;;;;;;;;4996922;28;20080;-67
2023/03/20 02:44:35;;;;;;;32.35;18.77;;;;;;;;;;5011757;28;20046;-64
2023/03/20 02:47:10;;;;;;;35.10;18.02;;;;;;;;;;5013934;28;20034;-65
2023/03/20 02:49:53;;;;;;;34.70;18.67;;;;;;;;;;4996466;28;20040;-61
2023/03/20 02:52:37;;;;;;;32.85;18.70;;;;;;;;;;4996078;28;20475;-61
2023/03/20 02:55:10;;;;;;;30.55;18.23;;;;;;;;;;5013757;28;20029;-62
2023/03/20 02:57:42;;;;;;;31.77;18.00;;;;;;;;;;4995937;28;20039;-61
2023/03/20 03:00:12;;;;;;;34.33;18.08;;;;;;;;;;5000325;28;20473;-62
2023/03/20 03:02:42;;;;;;;33.13;17.92;;;;;;;;;;4999936;28;20083;-61
2023/03/20 03:05:17;;;;;;;33.60;18.35;;;;;;;;;;5000282;28;20021;-61
2023/03/20 03:07:45;;;;;;;30.60;17.63;;;;;;;;;;4999893;28;20495;-65
2023/03/20 03:10:15;;;;;;;36.28;18.02;;;;;;;;;;4999855;28;20034;-62
2023/03/20 03:12:45;;;;;;;30.42;18.17;;;;;;;;;;5000017;28;20025;-62
2023/03/20 03:15:29;;;;;;;29.42;17.60;;;;;;;;;;4999761;28;20030;-62
2023/03/20 03:17:57;;;;;;;33.75;17.75;;;;;;;;;;5015939;28;20045;-62
2023/03/20 03:20:25;;;;;;;28.30;16.98;;;;;;;;;;5008700;23;20106;-62
2023/03/20 03:22:51;;;;;;;33.78;18.38;;;;;;;;;;5029912;23;20521;-63
2023/03/20 03:25:17;;;;;;;29.23;17.45;;;;;;;;;;5037640;23;20145;-64
2023/03/20 03:27:43;;;;;;;31.17;18.00;;;;;;;;;;4996211;28;20034;-64
2023/03/20 03:30:17;;;;;;;27.95;16.80;;;;;;;;;;5013638;28;20034;-64
2023/03/20 03:33:03;;;;;;;27.98;16.77;;;;;;;;;;5012464;28;20023;-65
2023/03/20 03:35:28;;;;;;;32.70;17.83;;;;;;;;;;4997870;28;20038;-65
2023/03/20 03:37:59;;;;;;;25.98;16.17;;;;;;;;;;4997494;28;20030;-65
2023/03/20 03:40:25;;;;;;;31.40;17.30;;;;;;;;;;5012304;28;20486;-65
2023/03/20 03:42:50;;;;;;;30.55;16.77;;;;;;;;;;5012884;28;20073;-62
2023/03/20 03:45:17;;;;;;;25.70;16.27;;;;;;;;;;4995878;28;20030;-63
2023/03/20 03:47:44;;;;;;;28.92;16.58;;;;;;;;;;4997102;28;20382;-62
2023/03/20 03:50:16;;;;;;;28.05;16.10;;;;;;;;;;4995820;28;20041;-61
2023/03/20 03:52:42;;;;;;;28.85;15.98;;;;;;;;;;5012117;28;20097;-62
2023/03/20 03:55:10;;;;;;;28.15;16.55;;;;;;;;;;4979516;28;20030;-61
2023/03/20 03:57:57;;;;;;;28.77;16.30;;;;;;;;;;4995877;28;20026;-62
2023/03/20 04:00:24;;;;;;;27.70;16.30;;;;;;;;;;4979448;28;20030;-61
2023/03/20 04:02:52;;;;;;;26.90;16.38;;;;;;;;;;5011930;28;20059;-62
2023/03/20 04:05:18;;;;;;;26.38;15.20;;;;;;;;;;5011865;28;20179;-62
2023/03/20 04:07:45;;;;;;;26.17;15.73;;;;;;;;;;4995506;28;20034;-62
2023/03/20 04:10:10;;;;;;;26.42;16.17;;;;;;;;;;4994971;28;20041;-62
2023/03/20 04:12:39;;;;;;;32.80;17.45;;;;;;;;;;4979204;28;20046;-62
2023/03/20 04:15:08;;;;;;;30.05;16.50;;;;;;;;;;4996639;28;20486;-62
2023/03/20 04:17:33;;;;;;;26.35;15.70;;;;;;;;;;5011570;28;20034;-62
2023/03/20 04:19:59;;;;;;;32.17;16.27;;;;;;;;;;4979013;28;20035;-62
2023/03/20 04:22:25;;;;;;;32.58;16.15;;;;;;;;;;4995240;28;20026;-61
2023/03/20 04:24:51;;;;;;;29.05;16.15;;;;;;;;;;5011806;28;20474;-62
2023/03/20 04:27:17;;;;;;;27.38;16.15;;;;;;;;;;4978889;28;20050;-62
2023/03/20 04:29:43;;;;;;;28.00;16.15;;;;;;;;;;5011415;28;20041;-62
2023/03/20 04:32:27;;;;;;;27.88;15.80;;;;;;;;;;4996354;28;20041;-64
2023/03/20 04:35:07;;;;;;;28.52;16.20;;;;;;;;;;4996531;28;20033;-63
2023/03/20 04:37:45;;;;;;;26.20;16.38;;;;;;;;;;4981541;28;20493;-62
2023/03/20 04:40:12;;;;;;;32.95;17.45;;;;;;;;;;4995124;28;20018;-65
2023/03/20 04:42:42;;;;;;;32.17;16.48;;;;;;;;;;5011226;28;20036;-62
2023/03/20 04:45:07;;;;;;;25.58;14.70;;;;;;;;;;5011084;28;20134;-62
2023/03/20 04:47:35;;;;;;;24.30;15.02;;;;;;;;;;4978202;28;20038;-62
2023/03/20 04:50:01;;;;;;;36.78;20.75;;;;;;;;;;4973362;28;20023;-63
2023/03/20 04:52:28;;;;;;;26.48;15.88;;;;;;;;;;4958537;28;20031;-62
2023/03/20 04:54:54;;;;;;;23.92;15.40;;;;;;;;;;4974403;28;20030;-62
2023/03/20 04:57:19;;;;;;;25.38;15.00;;;;;;;;;;4974773;28;20034;-63
2023/03/20 04:59:46;;;;;;;24.00;15.38;;;;;;;;;;4991058;28;20023;-63
2023/03/20 05:02:13;;;;;;;25.23;15.05;;;;;;;;;;4974661;28;20382;-63
2023/03/20 05:04:40;;;;;;;25.50;15.00;;;;;;;;;;4991632;28;20027;-64
2023/03/20 05:07:06;;;;;;;24.55;16.08;;;;;;;;;;4976076;28;20026;-63
2023/03/20 05:09:39;;;;;;;26.13;16.15;;;;;;;;;;4991423;28;20397;-62
2023/03/20 05:12:09;;;;;;;25.58;16.10;;;;;;;;;;4974944;28;20117;-65
2023/03/20 05:14:40;;;;;;;26.27;15.85;;;;;;;;;;4992353;28;20117;-63
2023/03/20 05:17:23;;;;;;;25.10;15.45;;;;;;;;;;4993667;28;20378;-63
2023/03/20 05:20:04;;;;;;;24.52;15.77;;;;;;;;;;4995631;28;20042;-62
2023/03/20 05:22:40;;;;;;;25.00;16.08;;;;;;;;;;4992780;28;20393;-62
2023/03/20 05:25:14;;;;;;;26.25;15.93;;;;;;;;;;4994540;28;20082;-63
2023/03/20 05:27:56;;;;;;;27.25;16.63;;;;;;;;;;4977920;28;20415;-62
2023/03/20 05:30:59;;;;;;;27.38;16.08;;;;;;;;;;4935115;29;20035;-62
2023/03/20 05:33:34;;;;;;;24.58;15.98;;;;;;;;;;4957131;28;20053;-62
2023/03/20 05:36:15;;;;;;;28.00;17.10;;;;;;;;;;4963554;28;20034;-62
2023/03/20 05:38:49;;;;;;;28.58;18.20;;;;;;;;;;4978698;28;20042;-62
2023/03/20 05:41:29;;;;;;;31.17;17.45;;;;;;;;;;4994756;28;20448;-62
2023/03/20 05:44:13;;;;;;;28.50;17.88;;;;;;;;;;4994763;28;20045;-63
2023/03/20 05:46:58;;;;;;;29.50;18.63;;;;;;;;;;4976535;28;20041;-62
2023/03/20 05:49:48;;;;;;;37.03;22.03;;;;;;;;;;4976338;28;20050;-63
2023/03/20 05:52:19;;;;;;;40.35;25.63;;;;;;;;;;4993903;28;20277;-65
2023/03/20 05:55:00;;;;;;;41.80;25.05;;;;;;;;;;4993399;28;20038;-65
2023/03/20 05:57:49;;;;;;;36.80;22.70;;;;;;;;;;4976718;28;20481;-65
2023/03/20 06:00:28;;;;;;;32.00;20.92;;;;;;;;;;4976740;28;20027;-65
2023/03/20 06:03:14;;;;;;;31.90;20.15;;;;;;;;;;4993771;28;20034;-65
2023/03/20 06:05:55;;;;;;;35.50;21.52;;;;;;;;;;4993333;28;20029;-65
2023/03/20 06:08:20;;;;;;;37.90;23.33;;;;;;;;;;4976551;28;20038;-63
2023/03/20 06:10:46;;;;;;;39.97;24.08;;;;;;;;;;4992106;28;20084;-63
2023/03/20 06:13:11;;;;;;;36.70;22.48;;;;;;;;;;4960654;28;20029;-65
2023/03/20 06:15:37;;;;;;;39.75;23.10;;;;;;;;;;4976660;28;20037;-67
2023/03/20 06:18:11;;;;;;;36.15;21.58;;;;;;;;;;4961519;28;20071;-67
2023/03/20 06:20:36;;;;;;;36.08;19.75;;;;;;;;;;4976431;28;20153;-66
2023/03/20 06:23:03;;;;;;;33.83;19.63;;;;;;;;;;4976657;28;20014;-65
2023/03/20 06:25:28;;;;;;;30.08;18.27;;;;;;;;;;4976463;28;20485;-64
2023/03/20 06:27:54;;;;;;;33.72;18.92;;;;;;;;;;4976637;28;20034;-65
2023/03/20 06:30:19;;;;;;;37.13;21.13;;;;;;;;;;4975671;28;20069;-65
2023/03/20 06:32:47;;;;;;;88.22;49.22;;;;;;;;;;4976296;28;20482;-65
2023/03/20 06:35:13;;;;;;;107.80;61.55;;;;;;;;;;4976191;28;20023;-65
2023/03/20 06:37:44;;;;;;;111.40;68.25;;;;;;;;;;4976352;28;20037;-65
2023/03/20 06:40:14;;;;;;;99.97;61.95;;;;;;;;;;4976304;28;20085;-64
2023/03/20 06:42:40;;;;;;;61.90;38.25;;;;;;;;;;4976119;28;20374;-57
2023/03/20 06:45:07;;;;;;;45.65;22.55;;;;;;;;;;4960274;28;20050;-64
2023/03/20 06:47:47;;;;;;;30.00;18.08;;;;;;;;;;4994039;28;20038;-62
2023/03/20 06:50:13;;;;;;;30.00;18.15;;;;;;;;;;4976922;28;20125;-63
2023/03/20 06:52:39;;;;;;;23.60;13.13;;;;;;;;;;4976883;28;20031;-63
2023/03/20 06:55:24;;;;;;;30.42;17.05;;;;;;;;;;4976615;28;20393;-62
2023/03/20 06:57:51;;;;;;;29.90;17.30;;;;;;;;;;4993720;28;20378;-62
2023/03/20 07:00:17;;;;;;;27.00;16.90;;;;;;;;;;4974947;28;20029;-63
2023/03/20 07:02:43;;;;;;;28.95;17.63;;;;;;;;;;4959373;28;20019;-62
2023/03/20 07:05:11;;;;;;;33.42;17.60;;;;;;;;;;4974477;28;20072;-62
2023/03/20 07:07:37;;;;;;;27.75;17.00;;;;;;;;;;4957457;28;20429;-62
2023/03/20 07:10:03;;;;;;;30.75;17.52;;;;;;;;;;4973448;28;20030;-62
2023/03/20 07:12:30;;;;;;;30.95;18.52;;;;;;;;;;4973456;28;20494;-62
2023/03/20 07:14:58;;;;;;;31.80;19.25;;;;;;;;;;4957873;28;20449;-62
2023/03/20 07:17:23;;;;;;;35.67;19.02;;;;;;;;;;4973775;28;20034;-63
2023/03/20 07:19:49;;;;;;;29.77;18.45;;;;;;;;;;4975205;28;20038;-63
2023/03/20 07:22:22;;;;;;;29.85;18.13;;;;;;;;;;4976113;28;20023;-63
2023/03/20 07:24:48;;;;;;;30.55;18.73;;;;;;;;;;4976015;28;20037;-63
2023/03/20 07:27:14;;;;;;;31.15;15.93;;;;;;;;;;5013864;23;20050;-68
2023/03/20 07:29:40;;;;;;;22.83;15.05;;;;;;;;;;4995460;28;20030;-68
2023/03/20 07:32:16;;;;;;;;;;;;;;;;;;4996027;28;20389;-68
2023/03/20 07:34:48;;;;;;;24.38;14.27;;;;;;;;;;4995417;28;20000;-68
2023/03/20 07:37:16;;;;;;;25.65;15.25;;;;;;;;;;5038971;23;20432;-62
2023/03/20 07:39:47;;;;;;;27.98;17.05;;;;;;;;;;5021747;23;20140;-68
2023/03/20 07:42:33;;;;;;;25.58;15.43;;;;;;;;;;5012325;28;20034;-68
2023/03/20 07:45:09;;;;;;;25.50;15.40;;;;;;;;;;4997322;28;20112;-68
2023/03/20 07:47:35;;;;;;;26.98;16.20;;;;;;;;;;5019083;28;20072;-69
2023/03/20 07:50:03;;;;;;;29.50;14.68;;;;;;;;;;5029824;23;20050;-68
2023/03/20 07:52:29;;;;;;;26.38;15.73;;;;;;;;;;5011780;28;20018;-68
2023/03/20 07:54:54;;;;;;;25.20;15.15;;;;;;;;;;4979275;28;20109;-68
2023/03/20 07:57:20;;;;;;;30.13;15.88;;;;;;;;;;5011905;28;20397;-68
2023/03/20 07:59:46;;;;;;;25.70;14.15;;;;;;;;;;4979310;28;20122;-68
2023/03/20 08:02:15;;;;;;;24.38;15.77;;;;;;;;;;4996532;28;20610;-68
2023/03/20 08:04:41;;;;;;;23.50;13.68;;;;;;;;;;4995256;28;20026;-68
2023/03/20 08:07:06;;;;;;;21.45;13.48;;;;;;;;;;4996410;28;20022;-68
2023/03/20 08:09:32;;;;;;;26.20;14.60;;;;;;;;;;4978944;28;20030;-68
2023/03/20 08:11:57;;;;;;;23.00;14.35;;;;;;;;;;4996307;28;20038;-68
2023/03/20 08:14:22;;;;;;;26.73;15.77;;;;;;;;;;4962720;28;20073;-68
2023/03/20 08:16:48;;;;;;;27.42;14.95;;;;;;;;;;4996299;28;20038;-68
2023/03/20 08:19:13;;;;;;;23.75;15.00;;;;;;;;;;4996207;28;20275;-68
2023/03/20 08:21:39;;;;;;;25.17;13.95;;;;;;;;;;4996038;28;20037;-68
2023/03/20 08:24:05;;;;;;;20.77;13.77;;;;;;;;;;4978809;28;20038;-68
2023/03/20 08:26:30;;;;;;;25.80;15.93;;;;;;;;;;4996105;28;20023;-68
2023/03/20 08:28:57;;;;;;;19.05;12.55;;;;;;;;;;4995110;28;20030;-63
2023/03/20 08:31:22;;;;;;;18.25;12.27;;;;;;;;;;4978676;28;20045;-68
2023/03/20 08:33:47;;;;;;;22.23;14.05;;;;;;;;;;4978644;28;20023;-68
2023/03/20 08:36:14;;;;;;;19.25;13.30;;;;;;;;;;4995935;28;20030;-68
2023/03/20 08:38:39;;;;;;;17.58;12.02;;;;;;;;;;5010847;28;20034;-68
2023/03/20 08:41:05;;;;;;;17.17;12.38;;;;;;;;;;4995918;28;20033;-68
2023/03/20 08:43:30;;;;;;;21.20;13.25;;;;;;;;;;5010887;28;20030;-68
2023/03/20 08:45:56;;;;;;;20.88;12.68;;;;;;;;;;4995710;28;20373;-68
2023/03/20 08:48:21;;;;;;;15.98;11.52;;;;;;;;;;4978249;28;20034;-68
2023/03/20 08:50:48;;;;;;;16.58;12.15;;;;;;;;;;5021717;23;20085;-63
2023/03/20 08:53:13;;;;;;;19.50;13.48;;;;;;;;;;5015362;28;20029;-63
2023/03/20 08:55:38;;;;;;;18.83;12.85;;;;;;;;;;5015148;28;20022;-63
2023/03/20 08:58:04;;;;;;;17.55;13.75;;;;;;;;;;5014992;28;20041;-63
2023/03/20 09:00:29;;;;;;;16.13;11.65;;;;;;;;;;5015081;28;20108;-62
2023/03/20 09:02:54;;;;;;;19.48;14.15;;;;;;;;;;5014999;28;20033;-63
2023/03/20 09:05:20;;;;;;;22.15;15.63;;;;;;;;;;5030571;28;20363;-63
2023/03/20 09:07:45;;;;;;;19.48;11.85;;;;;;;;;;5014907;28;20071;-68
2023/03/20 09:10:11;;;;;;;17.88;13.40;;;;;;;;;;5014953;28;20384;-68
2023/03/20 09:12:36;;;;;;;18.30;12.48;;;;;;;;;;5029985;28;20038;-68
2023/03/20 09:15:03;;;;;;;17.08;12.35;;;;;;;;;;4997240;28;20053;-68
2023/03/20 09:17:30;;;;;;;20.40;12.98;;;;;;;;;;4997211;28;20065;-68
2023/03/20 09:19:55;;;;;;;21.10;15.68;;;;;;;;;;5029975;28;20026;-68
2023/03/20 09:22:20;;;;;;;19.75;14.07;;;;;;;;;;5014710;28;20048;-68
2023/03/20 09:24:46;;;;;;;20.27;12.27;;;;;;;;;;5014642;28;20413;-68
2023/03/20 09:27:15;;;;;;;22.42;14.43;;;;;;;;;;5014541;28;20077;-68
2023/03/20 09:29:43;;;;;;;17.75;12.70;;;;;;;;;;5029889;28;20109;-68
2023/03/20 09:32:12;;;;;;;20.98;14.50;;;;;;;;;;5014513;28;20049;-62
2023/03/20 09:34:37;;;;;;;18.25;13.40;;;;;;;;;;4996946;28;20029;-62
2023/03/20 09:37:03;;;;;;;20.05;14.70;;;;;;;;;;5014382;28;20030;-63
2023/03/20 09:39:29;;;;;;;23.02;14.55;;;;;;;;;;4995650;28;20461;-62
2023/03/20 09:41:56;;;;;;;24.48;16.10;;;;;;;;;;5014068;28;20056;-63
2023/03/20 09:44:31;;;;;;;21.50;14.93;;;;;;;;;;5016202;28;20065;-63
2023/03/20 09:46:56;;;;;;;20.08;14.55;;;;;;;;;;4997185;28;20389;-63
2023/03/20 09:49:36;;;;;;;21.13;15.13;;;;;;;;;;5013782;28;20026;-63
2023/03/20 09:52:16;;;;;;;23.92;16.10;;;;;;;;;;5014061;28;20034;-70
2023/03/20 09:54:44;;;;;;;23.35;14.98;;;;;;;;;;5013968;28;20026;-68
2023/03/20 09:57:32;;;;;;;18.10;12.75;;;;;;;;;;5013644;28;20614;-68
2023/03/20 10:00:01;;;;;;;23.05;14.65;;;;;;;;;;5003461;28;20030;-62
2023/03/20 10:02:41;;;;;;;23.65;15.98;;;;;;;;;;5013877;28;20042;-63
2023/03/20 10:05:25;;;;;;;20.45;13.70;;;;;;;;;;5012248;28;20026;-63
2023/03/20 10:07:53;;;;;;;24.88;15.38;;;;;;;;;;4994731;28;20034;-68
2023/03/20 10:10:19;;;;;;;19.27;13.95;;;;;;;;;;4995221;28;20393;-62
2023/03/20 10:12:59;;;;;;;23.10;14.45;;;;;;;;;;5013727;28;20040;-63
2023/03/20 10:15:29;;;;;;;19.88;14.05;;;;;;;;;;4978912;28;20536;-63
2023/03/20 10:18:24;;;;;;;18.92;12.55;;;;;;;;;;5012656;28;20496;-63
2023/03/20 10:20:54;;;;;;;20.90;13.32;;;;;;;;;;5012297;28;20458;-63
2023/03/20 10:23:24;;;;;;;20.67;14.98;;;;;;;;;;5012336;28;20037;-62
2023/03/20 10:25:50;;;;;;;;;;;;;;;;;;5012403;28;20054;-63
2023/03/20 10:28:29;;;;;;;23.00;15.65;;;;;;;;;;5012491;28;19948;-63
2023/03/20 10:31:01;;;;;;;21.58;15.82;;;;;;;;;;4993143;28;20065;-63
2023/03/20 10:33:43;;;;;;;23.13;16.88;;;;;;;;;;5010724;28;20034;-63
2023/03/20 10:36:27;;;;;;;24.27;16.10;;;;;;;;;;4993983;28;20034;-63
2023/03/20 10:38:52;;;;;;;25.73;17.17;;;;;;;;;;5010862;28;20034;-63
2023/03/20 10:41:19;;;;;;;26.75;17.15;;;;;;;;;;5010208;28;20024;-62
2023/03/20 10:43:46;;;;;;;23.83;17.08;;;;;;;;;;5010538;28;20064;-62
2023/03/20 10:46:20;;;;;;;27.67;18.90;;;;;;;;;;4993008;28;20018;-63
2023/03/20 10:48:48;;;;;;;27.98;18.65;;;;;;;;;;4994817;28;20033;-63
2023/03/20 10:51:16;;;;;;;26.83;19.33;;;;;;;;;;5012089;28;20125;-63
2023/03/20 10:53:51;;;;;;;30.60;19.83;;;;;;;;;;4994940;28;20030;-68
2023/03/20 10:56:21;;;;;;;30.08;19.15;;;;;;;;;;4995402;28;20096;-68
2023/03/20 10:58:53;;;;;;;39.50;24.15;;;;;;;;;;5012904;28;20161;-68
2023/03/20 11:01:19;;;;;;;37.97;21.35;;;;;;;;;;4995401;28;20040;-68
2023/03/20 11:03:45;;;;;;;36.83;18.60;;;;;;;;;;5012399;28;20065;-68
2023/03/20 11:06:10;;;;;;;46.00;23.58;;;;;;;;;;5012148;28;20030;-68
2023/03/20 11:08:40;;;;;;;45.28;22.95;;;;;;;;;;5012067;28;20457;-68
2023/03/20 11:11:06;;;;;;;35.30;20.08;;;;;;;;;;4994702;28;20053;-68
2023/03/20 11:13:33;;;;;;;41.03;21.08;;;;;;;;;;5012001;28;20177;-68
2023/03/20 11:16:19;;;;;;;34.65;18.98;;;;;;;;;;4994237;28;20478;-68
2023/03/20 11:18:45;;;;;;;33.25;18.23;;;;;;;;;;4997064;28;20513;-67
2023/03/20 11:21:14;;;;;;;33.10;18.70;;;;;;;;;;5013334;28;20083;-67
2023/03/20 11:23:39;;;;;;;30.15;18.10;;;;;;;;;;5013629;28;20611;-68
2023/03/20 11:26:06;;;;;;;36.38;19.45;;;;;;;;;;5014824;28;20112;-68
2023/03/20 11:28:39;;;;;;;31.30;19.80;;;;;;;;;;4997804;28;20068;-68
2023/03/20 11:31:10;;;;;;;30.65;19.70;;;;;;;;;;5013946;28;20389;-68
2023/03/20 11:33:37;;;;;;;28.90;18.75;;;;;;;;;;4996607;28;20440;-67
2023/03/20 11:36:09;;;;;;;31.55;20.52;;;;;;;;;;5014234;28;20067;-67
2023/03/20 11:38:41;;;;;;;34.35;21.02;;;;;;;;;;4998093;28;20049;-62
2023/03/20 11:41:15;;;;;;;27.65;17.65;;;;;;;;;;5016123;28;20465;-62
2023/03/20 11:43:40;;;;;;;24.90;17.67;;;;;;;;;;5016228;28;20100;-62
2023/03/20 11:46:08;;;;;;;24.23;15.02;;;;;;;;;;5015615;28;20581;-62
2023/03/20 11:48:38;;;;;;;21.48;15.45;;;;;;;;;;5014724;28;20160;-62
2023/03/20 11:51:03;;;;;;;22.95;16.67;;;;;;;;;;4997634;28;20124;-62
2023/03/20 11:53:31;;;;;;;21.25;14.63;;;;;;;;;;5015333;28;20176;-62
2023/03/20 11:56:07;;;;;;;28.77;19.00;;;;;;;;;;5015280;28;20034;-62
2023/03/20 11:58:33;;;;;;;21.02;15.02;;;;;;;;;;5015198;28;20037;-62
2023/03/20 12:01:00;;;;;;;21.45;15.43;;;;;;;;;;4997569;28;20029;-62
2023/03/20 12:03:35;;;;;;;20.38;13.88;;;;;;;;;;4997425;28;20061;-62
2023/03/20 12:06:04;;;;;;;22.35;15.52;;;;;;;;;;5015060;28;20033;-62
2023/03/20 12:08:30;;;;;;;25.35;16.55;;;;;;;;;;4997392;28;20485;-62
2023/03/20 12:11:01;;;;;;;22.35;16.73;;;;;;;;;;4997618;28;20034;-62
2023/03/20 12:13:32;;;;;;;21.85;15.35;;;;;;;;;;5015748;28;20029;-67
2023/03/20 12:16:03;;;;;;;19.38;13.32;;;;;;;;;;5015144;28;20030;-62
2023/03/20 12:18:43;;;;;;;17.73;12.90;;;;;;;;;;5014969;28;20034;-62
2023/03/20 12:21:15;;;;;;;;;;;;;;;;;;5016079;28;20025;-62
2023/03/20 12:23:44;;;;;;;16.77;12.82;;;;;;;;;;5015679;28;19942;-62
2023/03/20 12:26:24;;;;;;;16.65;11.88;;;;;;;;;;5015846;28;20057;-67
2023/03/20 12:28:52;;;;;;;18.17;12.55;;;;;;;;;;5014963;28;20038;-67
2023/03/20 12:31:40;;;;;;;16.15;12.02;;;;;;;;;;5015223;28;20101;-67
2023/03/20 12:34:26;;;;;;;17.60;13.02;;;;;;;;;;5015141;28;20030;-67
2023/03/20 12:36:54;;;;;;;16.42;12.15;;;;;;;;;;4997371;28;20029;-62
2023/03/20 12:39:24;;;;;;;16.15;12.90;;;;;;;;;;5014856;28;20018;-67
2023/03/20 12:42:08;;;;;;;15.35;11.50;;;;;;;;;;5015079;28;20022;-67
2023/03/20 12:44:53;;;;;;;18.98;13.50;;;;;;;;;;4997802;28;20481;-67
2023/03/20 12:47:22;;;;;;;14.68;12.15;;;;;;;;;;4997881;28;20030;-67
2023/03/20 12:49:48;;;;;;;17.42;13.38;;;;;;;;;;4996716;28;20056;-67
2023/03/20 12:52:21;;;;;;;18.95;12.73;;;;;;;;;;5014524;28;20032;-67
2023/03/20 12:54:46;;;;;;;17.02;12.23;;;;;;;;;;5014300;28;20034;-67
2023/03/20 12:57:19;;;;;;;13.48;10.60;;;;;;;;;;4996713;28;20493;-67
2023/03/20 13:00:02;;;;;;;17.95;12.18;;;;;;;;;;5014109;28;20461;-67
2023/03/20 13:02:31;;;;;;;13.93;12.25;;;;;;;;;;5014550;28;20386;-67
2023/03/20 13:05:11;;;;;;;18.75;14.05;;;;;;;;;;4996858;28;20393;-67
2023/03/20 13:07:37;;;;;;;;;;;;;;;;;;5014481;28;20034;-67
2023/03/20 13:10:11;;;;;;;17.43;13.07;;;;;;;;;;5013895;28;19917;-67
2023/03/20 13:12:45;;;;;;;16.23;13.45;;;;;;;;;;4996243;28;20713;-67
2023/03/20 13:15:30;;;;;;;20.38;13.77;;;;;;;;;;4996059;28;20492;-67
2023/03/20 13:18:07;;;;;;;17.85;14.52;;;;;;;;;;5014235;28;20061;-67
2023/03/20 13:20:45;;;;;;;15.80;13.20;;;;;;;;;;5013689;28;20058;-67
2023/03/20 13:23:16;;;;;;;12.82;11.18;;;;;;;;;;5013055;28;20034;-67
2023/03/20 13:25:44;;;;;;;14.68;12.20;;;;;;;;;;4980081;28;20025;-67
2023/03/20 13:28:24;;;;;;;16.27;12.88;;;;;;;;;;4996159;28;20045;-67
2023/03/20 13:30:56;;;;;;;13.10;11.27;;;;;;;;;;4979947;28;20076;-67
2023/03/20 13:33:41;;;;;;;13.05;11.25;;;;;;;;;;5013415;28;20445;-68
2023/03/20 13:36:26;;;;;;;15.80;10.90;;;;;;;;;;5013694;28;20026;-67
2023/03/20 13:38:56;;;;;;;12.02;9.95;;;;;;;;;;5013725;28;20029;-68
2023/03/20 13:41:23;;;;;;;17.08;12.18;;;;;;;;;;5013589;28;20033;-67
2023/03/20 13:43:53;;;;;;;14.45;11.82;;;;;;;;;;5013165;28;20025;-67
2023/03/20 13:46:24;;;;;;;10.32;9.05;;;;;;;;;;5013144;28;20026;-68
2023/03/20 13:48:50;;;;;;;11.60;8.90;;;;;;;;;;4995663;28;20026;-68
2023/03/20 13:51:34;;;;;;;14.27;9.68;;;;;;;;;;4995490;28;20125;-68
2023/03/20 13:54:04;;;;;;;12.93;10.40;;;;;;;;;;5013086;28;20056;-68
2023/03/20 13:56:48;;;;;;;10.30;9.13;;;;;;;;;;5013305;28;20488;-68
2023/03/20 13:59:26;;;;;;;10.95;8.02;;;;;;;;;;5011956;28;20285;-68
2023/03/20 14:02:03;;;;;;;7.75;6.97;;;;;;;;;;5012943;28;20030;-68
2023/03/20 14:04:29;;;;;;;8.52;7.28;;;;;;;;;;5013156;28;20034;-68
2023/03/20 14:06:56;;;;;;;6.38;5.78;;;;;;;;;;4995394;28;20041;-67
2023/03/20 14:09:24;;;;;;;6.50;5.65;;;;;;;;;;4995272;28;20030;-68
2023/03/20 14:11:51;;;;;;;6.38;5.78;;;;;;;;;;5013117;28;20122;-68
2023/03/20 14:14:28;;;;;;;7.53;6.47;;;;;;;;;;5013013;28;20022;-67
2023/03/20 14:17:01;;;;;;;8.18;6.45;;;;;;;;;;4995113;28;20392;-68
2023/03/20 14:19:27;;;;;;;8.25;7.45;;;;;;;;;;5013583;28;20442;-68
2023/03/20 14:21:53;;;;;;;7.15;6.55;;;;;;;;;;5013067;28;20561;-68
2023/03/20 14:24:19;;;;;;;8.27;7.15;;;;;;;;;;5013000;28;20109;-68
2023/03/20 14:27:16;;;;;;;7.47;6.78;;;;;;;;;;5013259;28;20401;-62
2023/03/20 14:29:41;;;;;;;8.48;6.80;;;;;;;;;;4987858;28;20034;-68
2023/03/20 14:32:15;;;;;;;7.75;6.75;;;;;;;;;;5013687;28;20469;-62
2023/03/20 14:34:58;;;;;;;7.32;6.63;;;;;;;;;;4995832;28;20517;-62
2023/03/20 14:37:52;;;;;;;7.75;6.97;;;;;;;;;;4995908;28;20034;-62
2023/03/20 14:40:20;;;;;;;6.82;5.97;;;;;;;;;;5013577;28;20597;-62
2023/03/20 14:42:48;;;;;;;7.68;6.97;;;;;;;;;;4995492;28;20493;-62
2023/03/20 14:45:17;;;;;;;8.32;7.45;;;;;;;;;;4996340;28;20057;-62
2023/03/20 14:47:57;;;;;;;6.93;6.22;;;;;;;;;;5013635;28;20022;-62
2023/03/20 14:50:23;;;;;;;9.20;7.75;;;;;;;;;;5013239;28;20078;-62